Time;durP1;ratioP1;P1;durP2;ratioP2;P2;SDS_P1;SDS_P2;PMS_P1;PMS_P2;Temp;Humidity;BMP_temperature;BMP_pressure;BME280_temperature;BME280_humidity;BME280_pressure;Samples;Min_cycle;Max_cycle;Signal;HPM_P1;HPM_P2
2022/10/15 00:00:41;;;;;;;;;;;;;;;20.45;100.00;98135.47;5060686;28;19999;-44
2022/10/15 00:03:06;;;;;;;;;;;;;;;20.56;100.00;98131.13;5061344;28;19920;-44
2022/10/15 00:05:31;;;;;;;;;;;;;;;20.40;100.00;98142.91;5060895;28;19927;-44
2022/10/15 00:07:56;;;;;;;;;;;;;;;20.60;100.00;98130.75;5061157;28;19916;-43
2022/10/15 00:10:22;;;;;;;;;;;;;;;20.31;100.00;98135.84;5059878;28;19970;-44
2022/10/15 00:12:47;;;;;;;;;;;;;;;20.54;100.00;98125.19;5061283;28;19920;-45
2022/10/15 00:15:12;;;;;;;;;;;;;;;20.58;100.00;98137.91;5060836;28;19916;-45
2022/10/15 00:17:38;;;;;;;;;;;;;;;20.69;100.00;98129.13;5060598;28;19916;-43
2022/10/15 00:20:04;;;;;;;;;;;;;;;20.78;100.00;98120.47;5059357;28;20014;-48
2022/10/15 00:22:29;;;;;;;;;;;;;;;20.75;100.00;98117.28;5060370;28;19935;-44
2022/10/15 00:24:55;;;;;;;;;;;;;;;20.74;100.00;98121.69;5059993;28;19920;-44
2022/10/15 00:27:20;;;;;;;;;;;;;;;20.69;100.00;98123.88;5060741;28;20026;-45
2022/10/15 00:29:45;;;;;;;;;;;;;;;20.86;100.00;98122.38;5042144;28;19967;-48
2022/10/15 00:32:10;;;;;;;;;;;;;;;20.60;100.00;98120.28;5059552;28;19921;-45
2022/10/15 00:34:36;;;;;;;;;;;;;;;20.53;100.00;98113.91;5059604;28;19924;-47
2022/10/15 00:37:01;;;;;;;;;;;;;;;20.63;100.00;98104.31;5060158;28;20729;-46
2022/10/15 00:39:26;;;;;;;;;;;;;;;20.67;100.00;98110.94;5059995;28;20062;-48
2022/10/15 00:41:51;;;;;;;;;;;;;;;20.64;100.00;98118.22;5059956;28;20013;-45
2022/10/15 00:44:20;;;;;;;;;;;;;;;20.62;100.00;98113.13;5059511;28;19938;-45
2022/10/15 00:46:45;;;;;;;;;;;;;;;20.60;100.00;98109.81;5060533;28;19928;-47
2022/10/15 00:49:15;;;;;;;;;;;;;;;20.63;100.00;98103.47;5024514;28;19942;-46
2022/10/15 00:51:42;;;;;;;;;;;;;;;20.54;100.00;98097.22;5060152;28;19924;-46
2022/10/15 00:54:07;;;;;;;;;;;;;;;20.58;100.00;98096.03;5042189;28;20005;-45
2022/10/15 00:56:32;;;;;;;;;;;;;;;20.58;100.00;98097.84;5059629;28;19920;-45
2022/10/15 00:58:58;;;;;;;;;;;;;;;20.61;100.00;98102.78;5039090;28;20565;-45
2022/10/15 01:01:24;;;;;;;;;;;;;;;20.56;100.00;98099.72;5058704;28;20007;-46
2022/10/15 01:03:49;;;;;;;;;;;;;;;20.11;100.00;98097.50;5042227;28;19924;-46
2022/10/15 01:06:15;;;;;;;;;;;;;;;20.44;100.00;98097.22;5040972;28;20557;-47
2022/10/15 01:08:40;;;;;;;;;;;;;;;20.58;100.00;98090.00;5058909;28;19950;-46
2022/10/15 01:11:12;;;;;;;;;;;;;;;20.61;100.00;98092.31;5055769;28;20400;-45
2022/10/15 01:13:46;;;;;;;;;;;;;;;20.60;100.00;98093.31;5040451;28;19970;-46
2022/10/15 01:16:14;;;;;;;;;;;;;;;20.42;100.00;98091.28;5058729;28;20003;-46
2022/10/15 01:18:41;;;;;;;;;;;;;;;20.42;100.00;98091.28;5058045;28;19973;-46
2022/10/15 01:21:15;;;;;;;;;;;;;;;20.58;100.00;98095.22;5041447;28;19931;-47
2022/10/15 01:23:59;;;;;;;;;;;;;;;20.42;100.00;98091.28;5041223;28;20610;-46
2022/10/15 01:26:43;;;;;;;;;;;;;;;20.61;100.00;98094.94;5059213;28;20288;-46
2022/10/15 01:29:14;;;;;;;;;;;;;;;20.55;100.00;98095.44;5058445;28;19920;-46
2022/10/15 01:31:44;;;;;;;;;;;;;;;20.54;100.00;98088.56;5059378;28;19920;-48
2022/10/15 01:34:12;;;;;;;;;;;;;;;20.60;100.00;98091.50;5042169;28;19920;-45
2022/10/15 01:36:57;;;;;;;;;;;;;;;20.55;100.00;98090.22;5041646;28;19955;-47
2022/10/15 01:39:49;;;;;;;;;;;;;;;20.53;100.00;98086.94;5040142;28;19925;-45
2022/10/15 01:42:33;;;;;;;;;;;;;;;20.51;100.00;98084.44;5037482;28;20023;-47
2022/10/15 01:45:00;;;;;;;;;;;;;;;20.51;100.00;98078.38;5057822;28;20053;-46
2022/10/15 01:47:29;;;;;;;;;;;;;;;20.50;100.00;98081.94;5041886;28;20408;-47
2022/10/15 01:49:55;;;;;;;;;;;;;;;20.35;100.00;98084.13;5040709;28;19921;-48
2022/10/15 01:52:21;;;;;;;;;;;;;;;20.44;100.00;98084.13;5058106;28;20527;-45
2022/10/15 01:54:46;;;;;;;;;;;;;;;20.36;100.00;98081.34;5041577;28;19936;-46
2022/10/15 01:57:11;;;;;;;;;;;;;;;20.53;100.00;98079.06;5059139;28;19921;-45
2022/10/15 01:59:37;;;;;;;;;;;;;;;20.43;100.00;98086.88;5040454;28;20014;-47
2022/10/15 02:02:02;;;;;;;;;;;;;;;20.50;100.00;98084.56;5057863;28;19954;-46
2022/10/15 02:04:28;;;;;;;;;;;;;;;20.44;100.00;98083.31;5059607;28;20385;-46
2022/10/15 02:07:19;;;;;;;;;;;;;;;20.45;100.00;98084.97;5041429;28;19923;-45
2022/10/15 02:09:57;;;;;;;;;;;;;;;20.44;100.00;98094.59;5027754;28;19926;-46
2022/10/15 02:12:22;;;;;;;;;;;;;;;20.39;100.00;98091.56;5057403;28;19936;-46
2022/10/15 02:15:13;;;;;;;;;;;;;;;20.41;100.00;98087.03;5059344;28;19939;-47
2022/10/15 02:17:51;;;;;;;;;;;;;;;20.46;100.00;98084.84;5054748;28;19967;-46
2022/10/15 02:20:19;;;;;;;;;;;;;;;20.51;100.00;98078.38;5058173;28;19924;-46
2022/10/15 02:22:55;;;;;;;;;;;;;;;20.39;100.00;98075.03;5058177;28;19920;-46
2022/10/15 02:25:21;;;;;;;;;;;;;;;20.41;100.00;98079.19;5062140;28;19920;-47
2022/10/15 02:27:47;;;;;;;;;;;;;;;20.35;100.00;98084.94;5044877;28;19921;-46
2022/10/15 02:30:12;;;;;;;;;;;;;;;20.39;100.00;98073.25;5043295;28;20309;-45
2022/10/15 02:32:37;;;;;;;;;;;;;;;20.42;100.00;98080.00;5062089;28;19930;-45
2022/10/15 02:35:03;;;;;;;;;;;;;;;20.42;100.00;98072.97;5062647;28;19917;-45
2022/10/15 02:37:28;;;;;;;;;;;;;;;20.24;100.00;98071.97;5044415;28;20304;-46
2022/10/15 02:39:53;;;;;;;;;;;;;;;20.38;100.00;98076.00;5026777;28;19924;-46
2022/10/15 02:42:19;;;;;;;;;;;;;;;20.37;100.00;98067.34;5044470;28;19924;-46
2022/10/15 02:44:44;;;;;;;;;;;;;;;20.39;100.00;98057.56;5042675;28;20002;-47
2022/10/15 02:47:10;;;;;;;;;;;;;;;20.35;100.00;98064.03;5061611;28;19928;-46
2022/10/15 02:49:35;;;;;;;;;;;;;;;20.30;100.00;98065.38;5044208;28;19979;-47
2022/10/15 02:52:00;;;;;;;;;;;;;;;20.30;100.00;98065.38;5043900;28;19927;-47
2022/10/15 02:54:25;;;;;;;;;;;;;;;20.35;100.00;98068.44;5059678;28;19956;-46
2022/10/15 02:56:51;;;;;;;;;;;;;;;20.33;100.00;98071.16;5061597;28;19931;-45
2022/10/15 02:59:18;;;;;;;;;;;;;;;20.19;100.00;98076.78;5061863;28;19928;-46
2022/10/15 03:01:43;;;;;;;;;;;;;;;20.24;100.00;98077.19;5061132;28;19955;-46
2022/10/15 03:04:08;;;;;;;;;;;;;;;20.03;100.00;98074.66;5061310;28;19972;-46
2022/10/15 03:06:34;;;;;;;;;;;;;;;19.86;100.00;98076.06;5062150;28;19927;-47
2022/10/15 03:08:59;;;;;;;;;;;;;;;19.70;100.00;98089.59;5060978;28;20569;-46
2022/10/15 03:11:25;;;;;;;;;;;;;;;19.49;100.00;98100.03;5060428;28;20007;-46
2022/10/15 03:13:50;;;;;;;;;;;;;;;18.98;100.00;98113.81;5043606;28;20365;-45
2022/10/15 03:16:15;;;;;;;;;;;;;;;19.35;100.00;98105.59;5043419;28;20293;-45
2022/10/15 03:18:40;;;;;;;;;;;;;;;19.05;100.00;98109.75;5061087;28;19924;-47
2022/10/15 03:21:05;;;;;;;;;;;;;;;18.90;100.00;98116.19;5061320;28;19955;-46
2022/10/15 03:23:31;;;;;;;;;;;;;;;19.14;100.00;98116.81;5060649;28;19920;-46
2022/10/15 03:25:56;;;;;;;;;;;;;;;18.99;100.00;98118.88;5042709;28;19927;-45
2022/10/15 03:28:21;;;;;;;;;;;;;;;19.43;100.00;98110.97;5061342;28;20432;-47
2022/10/15 03:30:47;;;;;;;;;;;;;;;19.18;100.00;98123.47;5060806;28;20642;-48
2022/10/15 03:33:12;;;;;;;;;;;;;;;19.43;100.00;98110.97;5060985;28;20341;-46
2022/10/15 03:35:37;;;;;;;;;;;;;;;19.35;100.00;98110.81;5060757;28;19924;-45
2022/10/15 03:38:02;;;;;;;;;;;;;;;19.28;100.00;98112.25;5060600;28;19932;-46
2022/10/15 03:40:28;;;;;;;;;;;;;;;19.36;100.00;98102.84;5059242;28;19916;-46
2022/10/15 03:42:55;;;;;;;;;;;;;;;19.27;100.00;98097.53;5059337;28;19927;-46
2022/10/15 03:45:20;;;;;;;;;;;;;;;19.39;100.00;98088.72;5060210;28;19920;-46
2022/10/15 03:47:46;;;;;;;;;;;;;;;18.89;100.00;98098.91;5059622;28;20120;-45
2022/10/15 03:50:11;;;;;;;;;;;;;;;19.04;100.00;98108.06;5038274;28;20054;-46
2022/10/15 03:52:36;;;;;;;;;;;;;;;19.21;100.00;98107.53;5059300;28;19920;-46
2022/10/15 03:55:02;;;;;;;;;;;;;;;19.20;100.00;98098.06;5059732;28;19919;-46
2022/10/15 03:57:27;;;;;;;;;;;;;;;19.39;100.00;98080.88;5060496;28;19916;-45
2022/10/15 03:59:52;;;;;;;;;;;;;;;19.21;100.00;98073.59;5059912;28;20533;-45
2022/10/15 04:02:18;;;;;;;;;;;;;;;19.33;100.00;98078.78;5060619;28;19920;-45
2022/10/15 04:04:43;;;;;;;;;;;;;;;19.20;100.00;98087.63;5042237;28;19921;-46
2022/10/15 04:07:08;;;;;;;;;;;;;;;19.30;100.00;98082.47;5060576;28;19920;-46
2022/10/15 04:09:33;;;;;;;;;;;;;;;19.21;100.00;98073.59;5060645;28;19916;-47
2022/10/15 04:11:59;;;;;;;;;;;;;;;18.98;100.00;98077.28;5059959;28;19950;-46
2022/10/15 04:14:24;;;;;;;;;;;;;;;19.19;100.00;98082.53;5060427;28;20300;-44
2022/10/15 04:16:49;;;;;;;;;;;;;;;18.79;100.00;98078.78;5059150;28;19951;-47
2022/10/15 04:19:14;;;;;;;;;;;;;;;18.95;100.00;98088.78;5059349;28;19921;-46
2022/10/15 04:21:40;;;;;;;;;;;;;;;18.93;100.00;98082.03;5060714;28;19920;-46
2022/10/15 04:24:05;;;;;;;;;;;;;;;18.86;100.00;98086.06;5060310;28;19943;-46
2022/10/15 04:26:30;;;;;;;;;;;;;;;18.71;100.00;98091.56;5028389;28;19928;-47
2022/10/15 04:28:55;;;;;;;;;;;;;;;18.96;100.00;98089.63;5059227;28;19924;-45
2022/10/15 04:31:21;;;;;;;;;;;;;;;18.66;100.00;98082.44;5060241;28;19917;-45
2022/10/15 04:33:49;;;;;;;;;;;;;;;18.88;100.00;98092.00;5026848;28;19917;-46
2022/10/15 04:36:14;;;;;;;;;;;;;;;18.87;100.00;98085.16;5059491;28;19916;-49
2022/10/15 04:38:40;;;;;;;;;;;;;;;18.91;100.00;98087.38;5059802;28;19934;-46
2022/10/15 04:41:06;;;;;;;;;;;;;;;18.93;100.00;98084.63;5059991;28;20370;-47
2022/10/15 04:43:31;;;;;;;;;;;;;;;18.91;100.00;98086.56;5058031;28;19920;-46
2022/10/15 04:45:57;;;;;;;;;;;;;;;18.99;100.00;98084.13;5059121;28;20288;-46
2022/10/15 04:48:23;;;;;;;;;;;;;;;18.98;100.00;98087.72;5057899;28;19930;-46
2022/10/15 04:50:48;;;;;;;;;;;;;;;18.93;100.00;98089.84;5060197;28;19940;-45
2022/10/15 04:53:13;;;;;;;;;;;;;;;18.93;100.00;98085.47;5059706;28;20400;-47
2022/10/15 04:55:38;;;;;;;;;;;;;;;18.88;100.00;98086.78;5059897;28;19945;-45
2022/10/15 04:58:03;;;;;;;;;;;;;;;18.83;100.00;98088.94;5058950;28;19920;-46
2022/10/15 05:00:29;;;;;;;;;;;;;;;18.87;100.00;98090.38;5058140;28;19928;-45
2022/10/15 05:02:54;;;;;;;;;;;;;;;18.85;100.00;98092.25;5059743;28;19916;-46
2022/10/15 05:05:19;;;;;;;;;;;;;;;18.79;100.00;98097.03;5059298;28;19924;-45
2022/10/15 05:07:44;;;;;;;;;;;;;;;18.65;100.00;98093.81;5059920;28;20007;-48
2022/10/15 05:10:10;;;;;;;;;;;;;;;18.71;100.00;98091.56;5057577;28;19956;-46
2022/10/15 05:12:35;;;;;;;;;;;;;;;18.76;100.00;98083.34;5059503;28;19952;-47
2022/10/15 05:15:00;;;;;;;;;;;;;;;18.79;100.00;98083.97;5058924;28;19924;-45
2022/10/15 05:17:25;;;;;;;;;;;;;;;18.77;100.00;98077.22;5059694;28;20369;-46
2022/10/15 05:19:51;;;;;;;;;;;;;;;18.73;100.00;98079.22;5058676;28;19943;-46
2022/10/15 05:22:16;;;;;;;;;;;;;;;18.70;100.00;98078.63;5059106;28;19920;-46
2022/10/15 05:24:41;;;;;;;;;;;;;;;18.67;100.00;98079.69;5059354;28;20070;-46
2022/10/15 05:27:06;;;;;;;;;;;;;;;18.59;100.00;98079.50;5059773;28;19991;-46
2022/10/15 05:29:32;;;;;;;;;;;;;;;18.66;100.00;98077.25;5057281;28;19928;-46
2022/10/15 05:31:57;;;;;;;;;;;;;;;18.68;100.00;98077.91;5059210;28;19929;-45
2022/10/15 05:34:23;;;;;;;;;;;;;;;18.47;100.00;98078.69;5025495;28;19919;-45
2022/10/15 05:36:48;;;;;;;;;;;;;;;18.63;100.00;98086.09;5059444;28;19921;-46
2022/10/15 05:39:14;;;;;;;;;;;;;;;18.56;100.00;98087.56;5058034;28;19931;-45
2022/10/15 05:41:39;;;;;;;;;;;;;;;18.59;100.00;98082.94;5059318;28;19946;-45
2022/10/15 05:44:04;;;;;;;;;;;;;;;18.60;100.00;98084.56;5057397;28;20278;-45
2022/10/15 05:46:29;;;;;;;;;;;;;;;18.65;100.00;98081.59;5059057;28;19924;-46
2022/10/15 05:48:55;;;;;;;;;;;;;;;18.63;100.00;98093.94;5039261;28;19924;-45
2022/10/15 05:51:20;;;;;;;;;;;;;;;18.63;100.00;98096.53;5059286;28;19917;-46
2022/10/15 05:53:46;;;;;;;;;;;;;;;18.56;100.00;98095.38;5040759;28;20390;-44
2022/10/15 05:56:12;;;;;;;;;;;;;;;18.51;100.00;98090.53;5040382;28;20274;-45
2022/10/15 05:58:38;;;;;;;;;;;;;;;18.59;100.00;98095.16;5041106;28;19955;-45
2022/10/15 06:01:04;;;;;;;;;;;;;;;18.31;100.00;98089.47;5061162;28;19970;-46
2022/10/15 06:03:29;;;;;;;;;;;;;;;18.51;100.00;98089.69;5062750;28;19924;-46
2022/10/15 06:05:55;;;;;;;;;;;;;;;18.14;100.00;98092.59;5062870;28;19916;-46
2022/10/15 06:08:20;;;;;;;;;;;;;;;18.01;100.00;98091.88;5062216;28;20293;-47
2022/10/15 06:10:46;;;;;;;;;;;;;;;18.02;100.00;98093.53;5061227;28;19942;-45
2022/10/15 06:13:11;;;;;;;;;;;;;;;18.30;100.00;98098.25;5062484;28;19966;-47
2022/10/15 06:15:40;;;;;;;;;;;;;;;18.34;100.00;98091.03;5062073;28;19920;-46
2022/10/15 06:18:05;;;;;;;;;;;;;;;17.80;100.00;98097.75;5062947;28;20384;-45
2022/10/15 06:20:31;;;;;;;;;;;;;;;17.70;100.00;98094.19;5061403;28;19959;-45
2022/10/15 06:22:59;;;;;;;;;;;;;;;18.07;100.00;98096.63;5062354;28;19920;-44
2022/10/15 06:25:24;;;;;;;;;;;;;;;18.26;100.00;98107.25;5044153;28;20474;-44
2022/10/15 06:27:50;;;;;;;;;;;;;;;18.24;100.00;98108.34;5062564;28;19999;-46
2022/10/15 06:30:15;;;;;;;;;;;;;;;18.44;100.00;98106.78;5060576;28;19916;-46
2022/10/15 06:32:46;;;;;;;;;;;;;;;18.47;100.00;98112.56;5061271;28;19995;-46
2022/10/15 06:35:11;;;;;;;;;;;;;;;18.25;100.00;98125.66;5061538;28;19920;-47
2022/10/15 06:37:36;;;;;;;;;;;;;;;18.38;100.00;98135.00;5062091;28;20431;-45
2022/10/15 06:40:01;;;;;;;;;;;;;;;18.39;100.00;98139.25;5061623;28;19946;-47
2022/10/15 06:42:27;;;;;;;;;;;;;;;18.46;100.00;98146.59;5062581;28;19913;-46
2022/10/15 06:44:52;;;;;;;;;;;;;;;18.57;100.00;98146.59;5060663;28;20274;-45
2022/10/15 06:47:17;;;;;;;;;;;;;;;18.63;100.00;98153.09;5059969;28;20011;-45
2022/10/15 06:49:42;;;;;;;;;;;;;;;18.72;100.00;98155.78;5060651;28;20010;-46
2022/10/15 06:52:07;;;;;;;;;;;;;;;18.70;100.00;98157.72;5061882;28;19947;-45
2022/10/15 06:54:33;;;;;;;;;;;;;;;18.66;100.00;98161.50;5062460;28;19924;-46
2022/10/15 06:56:58;;;;;;;;;;;;;;;18.76;100.00;98159.81;5062017;28;19920;-45
2022/10/15 06:59:23;;;;;;;;;;;;;;;18.32;100.00;98153.72;5061773;28;19916;-46
2022/10/15 07:01:48;;;;;;;;;;;;;;;18.77;100.00;98148.50;5061046;28;19960;-46
2022/10/15 07:04:14;;;;;;;;;;;;;;;18.48;100.00;98155.13;5061398;28;19935;-46
2022/10/15 07:06:40;;;;;;;;;;;;;;;18.46;100.00;98155.25;5061918;28;19932;-45
2022/10/15 07:09:05;;;;;;;;;;;;;;;18.45;100.00;98150.13;5061337;28;19912;-46
2022/10/15 07:11:31;;;;;;;;;;;;;;;18.58;100.00;98143.03;5061103;28;20373;-45
2022/10/15 07:13:57;;;;;;;;;;;;;;;18.60;100.00;98135.91;5028530;28;20353;-46
2022/10/15 07:16:22;;;;;;;;;;;;;;;18.30;100.00;98145.19;5062020;28;19932;-46
2022/10/15 07:18:47;;;;;;;;;;;;;;;17.84;100.00;98148.69;5060641;28;19912;-46
2022/10/15 07:21:12;;;;;;;;;;;;;;;18.55;100.00;98148.50;5061479;28;19931;-45
2022/10/15 07:23:38;;;;;;;;;;;;;;;18.89;100.00;98140.63;5061900;28;19923;-47
2022/10/15 07:26:03;;;;;;;;;;;;;;;18.95;100.00;98135.75;5060341;28;19924;-46
2022/10/15 07:28:28;;;;;;;;;;;;;;;19.12;100.00;98138.78;5031692;28;20822;-46
2022/10/15 07:30:53;;;;;;;;;;;;;;;19.42;100.00;98143.28;5030967;28;19920;-46
2022/10/15 07:33:19;;;;;;;;;;;;;;;19.35;100.00;98148.19;5060952;28;19925;-46
2022/10/15 07:35:44;;;;;;;;;;;;;;;19.50;100.00;98151.31;5060859;28;20446;-46
2022/10/15 07:38:09;;;;;;;;;;;;;;;19.50;100.00;98147.88;5060725;28;19982;-46
2022/10/15 07:40:34;;;;;;;;;;;;;;;19.36;100.00;98149.00;5028241;28;19960;-46
2022/10/15 07:43:00;;;;;;;;;;;;;;;19.29;100.00;98151.28;5060521;28;19959;-46
2022/10/15 07:45:26;;;;;;;;;;;;;;;19.57;100.00;98147.25;5061269;28;19916;-47
2022/10/15 07:47:51;;;;;;;;;;;;;;;19.51;100.00;98145.13;5059954;28;20381;-45
2022/10/15 07:50:16;;;;;;;;;;;;;;;19.28;100.00;98141.81;5042269;28;19991;-46
2022/10/15 07:52:42;;;;;;;;;;;;;;;19.52;100.00;98146.78;5061228;28;19963;-45
2022/10/15 07:55:07;;;;;;;;;;;;;;;19.80;100.00;98136.72;5059853;28;19916;-46
2022/10/15 07:57:32;;;;;;;;;;;;;;;19.60;100.00;98136.53;5061120;28;20157;-45
2022/10/15 07:59:57;;;;;;;;;;;;;;;19.98;100.00;98136.91;5059534;28;19968;-45
2022/10/15 08:02:23;;;;;;;;;;;;;;;20.18;100.00;98137.84;5061203;28;19920;-45
2022/10/15 08:04:48;;;;;;;;;;;;;;;20.18;100.00;98137.84;5061053;28;20504;-48
2022/10/15 08:07:13;;;;;;;;;;;;;;;19.99;100.00;98151.66;5061420;28;19952;-46
2022/10/15 08:09:38;;;;;;;;;;;;;;;20.13;100.00;98150.50;5059089;28;19912;-46
2022/10/15 08:12:05;;;;;;;;;;;;;;;20.33;100.00;98141.78;5060721;28;20931;-46
2022/10/15 08:14:31;;;;;;;;;;;;;;;20.08;100.00;98142.22;5060149;28;19916;-47
2022/10/15 08:16:56;;;;;;;;;;;;;;;20.14;100.00;98141.66;5060138;28;19921;-45
2022/10/15 08:19:21;;;;;;;;;;;;;;;20.31;100.00;98140.25;5058571;28;19986;-46
2022/10/15 08:21:46;;;;;;;;;;;;;;;20.19;100.00;98131.69;5059360;28;19980;-46
2022/10/15 08:24:11;;;;;;;;;;;;;;;19.92;100.00;98140.06;5060963;28;19912;-44
2022/10/15 08:26:37;;;;;;;;;;;;;;;20.58;100.00;98127.44;5059603;28;19920;-44
2022/10/15 08:29:02;;;;;;;;;;;;;;;20.71;100.00;98126.34;5059209;28;20635;-44
2022/10/15 08:31:28;;;;;;;;;;;;;;;20.23;100.00;98127.81;5059470;28;19913;-45
2022/10/15 08:33:53;;;;;;;;;;;;;;;20.72;100.00;98123.59;5059160;28;20607;-45
2022/10/15 08:36:18;;;;;;;;;;;;;;;21.13;100.00;98119.09;5060301;28;19939;-45
2022/10/15 08:38:44;;;;;;;;;;;;;;;20.78;100.00;98128.31;5059251;28;19923;-45
2022/10/15 08:41:16;;;;;;;;;;;;;;;20.58;100.00;98134.47;5059310;28;20439;-45
2022/10/15 08:43:42;;;;;;;;;;;;;;;21.17;100.00;98117.88;5041808;28;19990;-45
2022/10/15 08:46:10;;;;;;;;;;;;;;;20.80;100.00;98123.78;5042015;28;19932;-45
2022/10/15 08:48:37;;;;;;;;;;;;;;;20.56;100.00;98123.25;5041525;28;19952;-45
2022/10/15 08:51:09;;;;;;;;;;;;;;;21.02;100.00;98120.06;5040932;28;20563;-45
2022/10/15 08:53:37;;;;;;;;;;;;;;;20.92;100.00;98121.03;5040944;28;19917;-44
2022/10/15 08:56:03;;;;;;;;;;;;;;;20.95;100.00;98111.09;5041860;28;19943;-45
2022/10/15 08:58:29;;;;;;;;;;;;;;;21.18;100.00;98109.03;5040248;28;19920;-45
2022/10/15 09:01:00;;;;;;;;;;;;;;;22.00;100.00;98105.06;5058662;28;19932;-45
2022/10/15 09:03:45;;;;;;;;;;;;;;;21.14;100.00;98105.03;5041798;28;19916;-45
2022/10/15 09:06:22;;;;;;;;;;;;;;;22.01;100.00;98096.25;5007524;28;19970;-45
2022/10/15 09:08:52;;;;;;;;;;;;;;;20.97;100.00;98095.28;5058392;28;20415;-45
2022/10/15 09:11:29;;;;;;;;;;;;;;;21.61;100.00;98105.16;5041510;28;20253;-45
2022/10/15 09:13:54;;;;;;;;;;;;;;;21.69;100.00;98113.16;5041306;28;19936;-45
2022/10/15 09:16:24;;;;;;;;;;;;;;;21.77;100.00;98109.00;5059539;28;19916;-45
2022/10/15 09:18:51;;;;;;;;;;;;;;;21.87;100.00;98104.56;5040879;28;19977;-44
2022/10/15 09:21:17;;;;;;;;;;;;;;;21.39;100.00;98106.25;5041121;28;19935;-45
2022/10/15 09:23:43;;;;;;;;;;;;;;;22.14;100.00;98107.22;5059229;28;19921;-45
2022/10/15 09:26:11;;;;;;;;;;;;;;;21.64;100.00;98110.13;5058805;28;19913;-45
2022/10/15 09:28:56;;;;;;;;;;;;;;;21.35;100.00;98115.38;5057042;28;20011;-44
2022/10/15 09:31:22;;;;;;;;;;;;;;;20.40;100.00;98131.63;5041648;28;20404;-45
2022/10/15 09:33:54;;;;;;;;;;;;;;;21.49;100.00;98135.13;5043516;28;19916;-45
2022/10/15 09:36:37;;;;;;;;;;;;;;;21.33;100.00;98124.34;5063518;28;19977;-45
2022/10/15 09:39:24;;;;;;;;;;;;;;;21.93;100.00;98124.97;5056493;28;19920;-46
2022/10/15 09:41:50;;;;;;;;;;;;;;;21.63;100.00;98113.72;5036978;28;19928;-45
2022/10/15 09:44:17;;;;;;;;;;;;;;;21.70;100.00;98111.38;5061561;28;19945;-45
2022/10/15 09:46:46;;;;;;;;;;;;;;;21.17;100.00;98112.63;5044120;28;20416;-45
2022/10/15 09:49:20;;;;;;;;;;;;;;;21.97;100.00;98100.13;5043776;28;19983;-45
2022/10/15 09:52:04;;;;;;;;;;;;;;;21.26;100.00;98098.72;5044777;28;20269;-46
2022/10/15 09:54:29;;;;;;;;;;;;;;;21.94;100.00;98103.03;5061367;28;19962;-45
2022/10/15 09:56:55;;;;;;;;;;;;;;;22.43;100.00;98089.72;5062356;28;19920;-46
2022/10/15 09:59:20;;;;;;;;;;;;;;;21.44;100.00;98087.53;5062731;28;20008;-46
2022/10/15 10:01:55;;;;;;;;;;;;;;;21.41;100.00;98087.84;5063623;28;19984;-46
2022/10/15 10:04:20;;;;;;;;;;;;;;;21.72;100.00;98091.91;5063756;28;19922;-45
2022/10/15 10:07:06;;;;;;;;;;;;;;;22.51;100.00;98084.56;5063418;28;19916;-47
2022/10/15 10:09:38;;;;;;;;;;;;;;;22.48;100.00;98077.00;5062308;28;19927;-46
2022/10/15 10:12:04;;;;;;;;;;;;;;;22.18;100.00;98080.72;5045425;28;19920;-46
2022/10/15 10:14:31;;;;;;;;;;;;;;;21.79;100.00;98083.50;5063452;28;19916;-45
2022/10/15 10:17:23;;;;;;;;;;;;;;;21.99;100.00;98084.25;5044964;28;20792;-46
2022/10/15 10:20:03;;;;;;;;;;;;;;;20.83;100.00;98099.13;5056968;28;19939;-46
2022/10/15 10:22:28;;;;;;;;;;;;;;;21.27;100.00;98095.13;5058816;28;19924;-45
2022/10/15 10:24:54;;;;;;;;;;;;;;;21.87;100.00;98094.06;5045019;28;19919;-46
2022/10/15 10:27:20;;;;;;;;;;;;;;;22.19;100.00;98092.84;5063208;28;19928;-46
2022/10/15 10:29:47;;;;;;;;;;;;;;;23.75;100.00;98076.81;5062445;28;19920;-46
2022/10/15 10:32:17;;;;;;;;;;;;;;;22.68;100.00;98094.28;5044669;28;20351;-46
2022/10/15 10:34:42;;;;;;;;;;;;;;;22.41;100.00;98094.31;5044883;28;19966;-45
2022/10/15 10:37:09;;;;;;;;;;;;;;;22.27;100.00;98085.13;5063034;28;20448;-46
2022/10/15 10:39:35;;;;;;;;;;;;;;;21.55;100.00;98084.75;5061006;28;19912;-46
2022/10/15 10:42:03;;;;;;;;;;;;;;;22.44;100.00;98075.63;5062556;28;19975;-46
2022/10/15 10:44:29;;;;;;;;;;;;;;;21.89;100.00;98073.78;5042734;28;20015;-47
2022/10/15 10:47:06;;;;;;;;;;;;;;;22.04;100.00;98080.22;5044386;28;20029;-47
2022/10/15 10:49:33;;;;;;;;;;;;;;;22.51;100.00;98071.44;5061208;28;20400;-46
2022/10/15 10:51:58;;;;;;;;;;;;;;;22.42;100.00;98062.69;5062343;28;19943;-45
2022/10/15 10:54:23;;;;;;;;;;;;;;;23.28;100.00;98056.91;5061395;28;20409;-45
2022/10/15 10:56:49;;;;;;;;;;;;;;;23.57;100.00;98053.19;5063094;28;20658;-45
2022/10/15 10:59:18;;;;;;;;;;;;;;;24.21;100.00;98046.63;5061488;28;19916;-45
2022/10/15 11:01:43;;;;;;;;;;;;;;;24.18;100.00;98041.69;5061796;28;20305;-45
2022/10/15 11:04:11;;;;;;;;;;;;;;;24.39;100.00;98043.06;5062413;28;19917;-46
2022/10/15 11:06:40;;;;;;;;;;;;;;;23.32;100.00;98045.13;5061644;28;20385;-48
2022/10/15 11:09:11;;;;;;;;;;;;;;;23.30;100.00;98041.84;5042638;28;20883;-46
2022/10/15 11:11:36;;;;;;;;;;;;;;;24.19;100.00;98045.97;5043424;28;19920;-46
2022/10/15 11:14:08;;;;;;;;;;;;;;;23.87;100.00;98037.94;5061495;28;20387;-47
2022/10/15 11:16:52;;;;;;;;;;;;;;;23.38;100.00;98039.28;5039464;28;19931;-47
2022/10/15 11:19:21;;;;;;;;;;;;;;;23.25;100.00;98032.78;5040006;28;20001;-47
2022/10/15 11:22:21;;;;;;;;;;;;;;;24.39;100.00;98032.53;5041823;28;19924;-47
2022/10/15 11:24:53;;;;;;;;;;;;;;;24.08;100.00;98027.81;4979785;28;19917;-46
2022/10/15 11:27:18;;;;;;;;;;;;;;;23.89;100.00;98021.03;5046441;28;19923;-46
2022/10/15 11:29:46;;;;;;;;;;;;;;;24.60;100.00;98025.03;5059957;28;19925;-47
2022/10/15 11:32:24;;;;;;;;;;;;;;;24.37;100.00;98024.81;5060729;28;19926;-46
2022/10/15 11:34:55;;;;;;;;;;;;;;;24.75;100.00;98022.59;5042015;28;19916;-46
2022/10/15 11:37:20;;;;;;;;;;;;;;;24.29;100.00;98030.06;5060876;28;19917;-47
2022/10/15 11:39:53;;;;;;;;;;;;;;;24.81;100.00;98021.13;5059847;28;19917;-47
2022/10/15 11:42:22;;;;;;;;;;;;;;;23.79;100.00;98026.41;5042669;28;19920;-47
2022/10/15 11:45:07;;;;;;;;;;;;;;;23.92;100.00;98025.13;5060813;28;19916;-46
2022/10/15 11:47:51;;;;;;;;;;;;;;;24.14;100.00;98029.84;5043605;28;19923;-46
2022/10/15 11:50:27;;;;;;;;;;;;;;;24.28;100.00;98023.13;5060780;28;20214;-48
2022/10/15 11:52:55;;;;;;;;;;;;;;;23.40;100.00;98026.00;5061041;28;19917;-48
2022/10/15 11:55:43;;;;;;;;;;;;;;;24.50;100.00;98019.13;5059564;28;19921;-48
2022/10/15 11:58:27;;;;;;;;;;;;;;;24.28;100.00;98019.69;5049858;28;19916;-47
2022/10/15 12:00:54;;;;;;;;;;;;;;;24.19;100.00;98022.28;5042843;28;20361;-47
2022/10/15 12:03:23;;;;;;;;;;;;;;;24.37;100.00;98009.00;5043156;28;19924;-47
2022/10/15 12:05:59;;;;;;;;;;;;;;;23.23;100.00;98013.72;5026349;28;19924;-47
2022/10/15 12:08:25;;;;;;;;;;;;;;;23.78;100.00;98013.41;5042393;28;19916;-47
2022/10/15 12:10:57;;;;;;;;;;;;;;;23.18;100.00;98006.28;5042847;28;20480;-47
2022/10/15 12:13:33;;;;;;;;;;;;;;;24.08;100.00;98003.34;5060372;28;19923;-47
2022/10/15 12:16:05;;;;;;;;;;;;;;;24.12;100.00;97989.72;5042391;28;19916;-47
2022/10/15 12:18:49;;;;;;;;;;;;;;;24.02;100.00;97996.91;5042120;28;20389;-46
2022/10/15 12:21:27;;;;;;;;;;;;;;;24.08;100.00;97991.00;5060943;28;19959;-47
2022/10/15 12:23:52;;;;;;;;;;;;;;;22.62;100.00;97975.94;5060533;28;20482;-47
2022/10/15 12:26:23;;;;;;;;;;;;;;;23.59;100.00;98001.28;5060432;28;19920;-49
2022/10/15 12:28:52;;;;;;;;;;;;;;;24.51;100.00;97988.34;5058581;28;19917;-47
2022/10/15 12:31:19;;;;;;;;;;;;;;;23.63;100.00;97994.75;5042822;28;19916;-48
2022/10/15 12:33:44;;;;;;;;;;;;;;;24.62;100.00;97988.03;5042398;28;19931;-46
2022/10/15 12:36:29;;;;;;;;;;;;;;;24.05;100.00;97991.34;5060286;28;20428;-48
2022/10/15 12:38:54;;;;;;;;;;;;;;;23.51;100.00;97983.66;5042066;28;20248;-48